Weather observations for the past three days for
Seguin - Randolph AFB Auxiliary Field
Metric (Imperial)
Date Time (cdt) Wind (kph) Vis. (km) Weather Sky Cond. Temperature (ºC) Relative Humidity Wind Chill (°C) Heat Index (°C) Pressure Precipitation (cm)
Air Dwpt 6 hour altimeter (cm) sea level (mb) 1 hr 3 hr 6 hr
Max. Min.
02 10:55 SW 13 16.09 Fair CLR 33.5 23.5 56% 39 76.07 1013.6
02 09:55 SW 20 16.09 A Few Clouds FEW020 30.7 24.3 69% 36 76.05 1013.3
02 08:55 SW 15 16.09 A Few Clouds FEW016 28.1 24.7 82% 33 76.07 1013.6
02 07:55 Calm 14.48 Fair CLR 25.3 23.7 91% 26 76.05 1013.3
02 06:55 Calm 16.09 Fair CLR 24.7 22.4 26.8 24.7 87% 25 76 1012.6
02 05:55 W 6 16.09 Fair CLR 25.4 22.7 85% 27 76 1012.6
02 04:55 SW 6 16.09 Fair CLR 25.2 22.1 83% 26 76 1012.6
02 03:55 SW 7 16.09 Fair CLR 25.7 22.6 83% 27 76 1012.5
02 02:55 SW 6 16.09 Fair CLR 26.3 22.7 81% 28 76 1012.6
02 01:55 S 9 16.09 Fair CLR 26 22.2 80% 28 76 1012.6
02 00:55 SE 7 16.09 Fair CLR 26.8 22.4 35.4 26.8 77% 29 76 1012.6
01 23:55 E 7 16.09 Fair CLR 27.9 22.6 73% 31 76 1012.6
01 22:55 SE 9 16.09 Fair CLR 28.7 22.4 69% 32 75.97 1012.2
01 21:55 SE 24 16.09 Fair CLR 30.2 22.1 62% 34 75.92 1011.6
01 20:55 SE 17 16.09 Fair CLR 32.6 20.5 49% 35 75.84 1010.5
01 19:55 E 11 16.09 Fair CLR 34 19.6 43% 36 75.79 1009.9
01 18:55 E 19 16.09 Fair CLR 35.5 20.6 41.1 35.5 42% 39 75.9 1011.2
01 17:55 NE 9 16.09 Mostly Cloudy SCT080 BKN100 39.1 18.3 30% 41 75.87 1010.9
01 16:55 N 6 16.09 Fair CLR 39.6 18.7 29% 42 75.79 1009.8
01 15:55 NE 7 16.09 Fair CLR 39.5 19.2 31% 42 75.92 1011.5
01 14:55 NE 7 16.09 Partly Cloudy SCT070 37.8 20.1 36% 41 75.92 1011.5
01 13:55 S 6 16.09 Partly Cloudy SCT060 SCT300 37.5 20.7 38% 41 75.97 1012.2
01 12:55 Calm 16.09 A Few Clouds FEW050 37.5 21.1 37.5 24.3 38% 42 76.05 1013.2
01 11:55 Calm 16.09 Fair CLR 35.7 21.1 43% 39 76.1 1013.9
01 10:55 Calm 16.09 A Few Clouds FEW031 34.3 23.3 53% 40 76.15 1014.6
01 09:55 W 6 16.09 Partly Cloudy SCT017 32.7 24.7 63% 40 76.15 1014.6
01 08:55 Calm 16.09 Fair CLR 29.3 25.9 82% 36 76.15 1014.6
01 07:55 Calm 16.09 Fair CLR 25.5 24.4 94% 27 76.1 1014.0
01 06:55 Calm 16.09 Fair CLR 24.3 22.9 27.2 24.2 92% 24 76.07 1013.6
01 05:55 W 6 16.09 Fair CLR 25 23.6 92% 26 76.07 1013.6
01 04:55 Calm 16.09 Mostly Cloudy BKN013 BKN018 25.5 23.9 91% 27 76.07 1013.6
01 03:55 Calm 16.09 Partly Cloudy SCT014 25.3 23.3 89% 26 76.07 1013.6
01 02:55 S 7 16.09 A Few Clouds FEW012 26 24 89% 28 76.07 1013.6
01 01:55 S 9 16.09 Fair CLR 26.4 23.2 83% 29 76.07 0.0
01 00:55 S 7 16.09 Fair CLR 27.2 23.2 37 27.1 79% 30 76.05 0.0
31 23:55 S 13 16.09 Fair CLR 28.8 22 67% 32 76.02 0.0
31 22:55 S 13 16.09 Fair CLR 30.2 20.7 57% 33 76 0.0
31 21:55 SE 20 G 35 16.09 Fair CLR 31.6 21.4 55% 35 75.97 0.0
31 20:55 S 13 16.09 Fair CLR 31.6 20.8 53% 34 75.87 0.0
31 19:55 SE 13 16.09 Fair CLR 33.9 20.3 45% 37 75.92 0.0
31 17:55 SE 9 16.09 Fair CLR 40 16.2 25% 41 75.79 0.0
31 16:55 SE 13 16.09 Fair CLR 39.9 17.9 28% 42 75.84 0.0
31 15:55 SE 13 16.09 Fair CLR 39.9 18.4 28% 42 75.9 0.0
Date Time (cdt) Wind (kph) Vis. (km) Weather Sky Cond. Air Dwpt Max. Min. Relative Humidity Wind Chill (°C) Heat Index (°C) altimeter (cm) sea level (mb) 1 hr 3 hr 6 hr
6 hour
Temperature (ºC) Pressure Precipitation (cm)